createdAt,value
2019-05-05T00:01:22.019Z,1.57
2019-05-05T00:03:57.036Z,1.58
2019-05-05T00:06:24.994Z,1.55
2019-05-05T00:08:51.787Z,1.60
2019-05-05T00:11:27.484Z,1.36
2019-05-05T00:14:16.787Z,1.20
2019-05-05T00:16:54.728Z,1.06
2019-05-05T00:19:30.702Z,1.06
2019-05-05T00:21:50.183Z,1.13
2019-05-05T00:24:16.976Z,1.02
2019-05-05T00:26:45.918Z,0.98
2019-05-05T00:29:12.464Z,0.91
2019-05-05T00:31:39.250Z,1.00
2019-05-05T00:34:06.133Z,0.90
2019-05-05T00:36:35.057Z,0.85
2019-05-05T00:39:01.560Z,0.79
2019-05-05T00:41:28.321Z,0.70
2019-05-05T00:43:55.478Z,0.73
2019-05-05T00:46:35.175Z,1.01
2019-05-05T00:49:02.035Z,0.80
2019-05-05T00:51:28.711Z,0.72
2019-05-05T00:53:56.502Z,0.65
2019-05-05T00:56:25.026Z,0.50
2019-05-05T00:58:56.954Z,0.45
2019-05-05T01:01:41.385Z,0.34
2019-05-05T01:04:08.810Z,0.29
2019-05-05T01:06:35.709Z,0.22
2019-05-05T01:09:04.433Z,0.19
2019-05-05T01:11:31.215Z,0.15
2019-05-05T01:13:57.979Z,0.18
2019-05-05T01:16:24.860Z,0.13
2019-05-05T01:18:51.634Z,0.17
2019-05-05T01:21:18.425Z,0.13
2019-05-05T01:23:45.675Z,0.14
2019-05-05T01:26:14.259Z,0.03
2019-05-05T01:28:41.192Z,0.02
2019-05-05T01:31:14.543Z,-0.04
2019-05-05T01:34:00.778Z,0.07
2019-05-05T01:36:27.692Z,-0.06
2019-05-05T01:39:04.301Z,0.00
2019-05-05T01:41:38.008Z,0.08
2019-05-05T01:44:04.998Z,-0.02
2019-05-05T01:46:32.059Z,-0.05
2019-05-05T01:48:58.961Z,-0.13
2019-05-05T01:51:26.092Z,0.20
2019-05-05T01:53:54.560Z,0.01
2019-05-05T01:56:21.447Z,0.01
2019-05-05T01:58:48.512Z,-0.03
2019-05-05T02:01:15.361Z,0.05
2019-05-05T02:03:44.252Z,-0.10
2019-05-05T02:06:11.109Z,-0.22
2019-05-05T02:08:37.871Z,-0.29
2019-05-05T02:11:05.303Z,-0.29
2019-05-05T02:13:32.068Z,-0.44
2019-05-05T02:15:58.910Z,-0.56
2019-05-05T02:18:25.675Z,-0.65
2019-05-05T02:21:01.678Z,-0.48
2019-05-05T02:23:28.448Z,-0.51
2019-05-05T02:25:55.423Z,-0.41
2019-05-05T02:28:24.131Z,-0.48
2019-05-05T02:31:05.845Z,-0.35
2019-05-05T02:33:35.364Z,-0.21
2019-05-05T02:36:01.330Z,-0.21
2019-05-05T02:38:28.107Z,-0.30
2019-05-05T02:40:55.728Z,-0.31
2019-05-05T02:43:25.036Z,-0.21
2019-05-05T02:46:05.556Z,-0.16
2019-05-05T02:48:35.527Z,0.05
2019-05-05T02:51:06.699Z,0.18
2019-05-05T02:53:39.087Z,0.18
2019-05-05T02:56:14.620Z,0.19
2019-05-05T02:58:41.662Z,0.16
2019-05-05T03:01:26.839Z,0.21
2019-05-05T03:03:54.403Z,0.14
2019-05-05T03:06:21.253Z,-0.03
2019-05-05T03:08:48.706Z,-0.05
2019-05-05T03:11:15.926Z,-0.14
2019-05-05T03:13:46.291Z,-0.22
2019-05-05T03:16:15.964Z,-0.29
2019-05-05T03:18:43.966Z,-0.28
2019-05-05T03:21:10.968Z,-0.31
2019-05-05T03:23:37.819Z,-0.29
2019-05-05T03:26:05.326Z,-0.33
2019-05-05T03:28:44.738Z,-0.31
2019-05-05T03:31:15.811Z,-0.21
2019-05-05T03:33:41.697Z,-0.01
2019-05-05T03:36:08.689Z,0.10
2019-05-05T03:38:35.589Z,0.20
2019-05-05T03:41:29.732Z,0.13
2019-05-05T03:44:09.868Z,0.14
2019-05-05T03:46:36.975Z,0.23
2019-05-05T03:49:05.436Z,0.33
2019-05-05T03:51:34.371Z,0.47
2019-05-05T03:54:01.829Z,0.60
2019-05-05T03:56:28.632Z,0.74
2019-05-05T03:58:58.296Z,0.76
2019-05-05T04:01:59.067Z,0.77
2019-05-05T04:04:30.304Z,0.84
2019-05-05T04:06:57.943Z,0.92
2019-05-05T04:09:25.106Z,1.07
2019-05-05T04:11:53.939Z,1.17
2019-05-05T04:14:24.694Z,1.30
2019-05-05T04:17:08.360Z,1.35
2019-05-05T04:19:36.547Z,1.46
2019-05-05T04:22:04.243Z,1.56
2019-05-05T04:24:34.034Z,1.55
2019-05-05T04:27:00.706Z,1.61
2019-05-05T04:29:27.501Z,1.74
2019-05-05T04:31:54.298Z,1.93
2019-05-05T04:34:21.071Z,1.94
2019-05-05T04:36:48.164Z,1.99
2019-05-05T04:39:17.684Z,2.01
2019-05-05T04:41:44.486Z,2.08
2019-05-05T04:44:11.289Z,2.08
2019-05-05T04:46:38.261Z,2.18
2019-05-05T04:49:15.233Z,2.35
2019-05-05T04:51:49.452Z,2.45
2019-05-05T04:54:38.216Z,2.64
2019-05-05T04:57:05.059Z,2.79
2019-05-05T04:59:33.891Z,3.05
2019-05-05T05:02:04.401Z,3.10
2019-05-05T05:04:40.239Z,3.10
2019-05-05T05:07:08.985Z,2.88
2019-05-05T05:09:35.745Z,2.83
2019-05-05T05:12:04.013Z,3.10
2019-05-05T05:14:33.549Z,3.08
2019-05-05T05:17:03.480Z,3.00
2019-05-05T05:19:30.138Z,2.92
2019-05-05T05:22:01.721Z,3.04
2019-05-05T05:24:25.296Z,3.27
2019-05-05T05:26:52.068Z,3.76
2019-05-05T05:29:18.646Z,4.00
2019-05-05T05:31:45.440Z,4.10
2019-05-05T05:34:12.217Z,4.56
2019-05-05T05:36:39.020Z,4.84
2019-05-05T05:39:13.986Z,4.90
2019-05-05T05:41:44.553Z,5.01
2019-05-05T05:44:33.505Z,4.93
2019-05-05T05:47:24.451Z,5.07
2019-05-05T05:49:57.493Z,5.26
2019-05-05T05:52:24.383Z,5.96
2019-05-05T05:54:51.156Z,5.96
2019-05-05T05:57:17.921Z,6.19
2019-05-05T05:59:44.603Z,6.22
2019-05-05T06:02:15.388Z,6.64
2019-05-05T06:04:41.075Z,7.05
2019-05-05T06:07:07.653Z,7.25
2019-05-05T06:09:34.633Z,6.99
2019-05-05T06:12:03.450Z,6.89
2019-05-05T06:14:30.222Z,6.80
2019-05-05T06:16:56.981Z,7.14
2019-05-05T06:19:24.618Z,7.77
2019-05-05T06:21:51.881Z,7.19
2019-05-05T06:24:18.556Z,7.41
2019-05-05T06:26:45.172Z,7.84
2019-05-05T06:29:11.926Z,7.39
2019-05-05T06:31:38.750Z,7.15
2019-05-05T06:34:05.516Z,6.90
2019-05-05T06:36:34.093Z,7.00
2019-05-05T06:39:04.571Z,6.67
2019-05-05T06:41:40.646Z,6.44
2019-05-05T06:44:24.715Z,6.06
2019-05-05T06:47:04.598Z,6.34
2019-05-05T06:49:31.453Z,8.17
2019-05-05T06:51:58.305Z,7.84
2019-05-05T06:54:25.013Z,7.53
2019-05-05T06:56:53.753Z,7.50
2019-05-05T06:59:20.543Z,7.62
2019-05-05T07:01:47.310Z,6.90
2019-05-05T07:04:14.069Z,7.03
2019-05-05T07:06:51.696Z,7.18
2019-05-05T07:09:09.552Z,7.82
2019-05-05T07:11:36.575Z,7.75
2019-05-05T07:14:03.790Z,8.96
2019-05-05T07:16:30.535Z,10.05
2019-05-05T07:18:57.211Z,11.83
2019-05-05T07:21:24.295Z,12.10
2019-05-05T07:23:51.109Z,14.27
2019-05-05T07:26:17.674Z,15.94
2019-05-05T07:28:44.867Z,16.88
2019-05-05T07:31:11.630Z,15.55
2019-05-05T07:33:38.410Z,13.40
2019-05-05T07:36:24.965Z,13.18
2019-05-05T07:38:51.828Z,12.64
2019-05-05T07:41:18.586Z,15.72
2019-05-05T07:43:45.379Z,15.91
2019-05-05T07:46:13.553Z,15.02
2019-05-05T07:48:40.719Z,14.99
2019-05-05T07:51:07.393Z,13.74
2019-05-05T07:53:33.997Z,13.82
2019-05-05T07:56:00.680Z,15.08
2019-05-05T07:58:27.447Z,15.70
2019-05-05T08:00:54.231Z,15.14
2019-05-05T08:03:21.008Z,15.14
2019-05-05T08:05:47.852Z,18.84
2019-05-05T08:08:14.735Z,19.23
2019-05-05T08:10:43.552Z,20.64
2019-05-05T08:13:10.231Z,18.39
2019-05-05T08:15:37.639Z,15.87
2019-05-05T08:18:16.695Z,16.07
2019-05-05T08:20:46.600Z,15.70
2019-05-05T08:23:31.742Z,15.26
2019-05-05T08:26:04.657Z,14.68
2019-05-05T08:28:45.068Z,17.28
2019-05-05T08:31:25.067Z,16.98
2019-05-05T08:33:51.827Z,16.75
2019-05-05T08:36:18.924Z,16.18
2019-05-05T08:38:45.617Z,16.55
2019-05-05T08:41:33.839Z,13.36
2019-05-05T08:44:00.725Z,13.11
2019-05-05T08:46:27.458Z,12.98
2019-05-05T08:48:54.138Z,13.21
2019-05-05T08:51:20.991Z,12.62
2019-05-05T08:53:48.501Z,13.34
2019-05-05T08:56:15.231Z,13.98
2019-05-05T08:58:43.833Z,14.60
2019-05-05T09:01:10.538Z,13.97
2019-05-05T09:03:37.341Z,14.14
2019-05-05T09:06:04.795Z,12.80
2019-05-05T09:08:31.616Z,11.83
2019-05-05T09:10:58.593Z,14.15
2019-05-05T09:13:25.395Z,18.48
2019-05-05T09:15:54.254Z,20.16
2019-05-05T09:18:20.767Z,22.06
2019-05-05T09:20:47.586Z,22.77
2019-05-05T09:23:14.879Z,19.77
2019-05-05T09:25:53.971Z,18.83
2019-05-05T09:28:28.107Z,16.76
2019-05-05T09:30:54.927Z,15.77
2019-05-05T09:33:21.936Z,17.74
2019-05-05T09:35:48.730Z,22.50
2019-05-05T09:38:16.130Z,25.43
2019-05-05T09:40:43.966Z,25.40
2019-05-05T09:43:10.917Z,23.53
2019-05-05T09:45:38.109Z,18.76
2019-05-05T09:48:05.199Z,15.55
2019-05-05T09:50:34.057Z,14.90
2019-05-05T09:53:00.683Z,14.42
2019-05-05T09:55:27.361Z,15.14
2019-05-05T09:57:54.152Z,15.02
2019-05-05T10:00:20.934Z,14.07
2019-05-05T10:02:47.751Z,13.03
2019-05-05T10:05:14.759Z,13.30
2019-05-05T10:07:41.540Z,12.50
2019-05-05T10:10:08.306Z,11.55
2019-05-05T10:12:35.097Z,11.21
2019-05-05T10:15:07.194Z,11.79
2019-05-05T10:17:33.518Z,11.65
2019-05-05T10:20:00.157Z,11.08
2019-05-05T10:22:26.851Z,10.87
2019-05-05T10:25:13.298Z,10.70
2019-05-05T10:27:45.035Z,11.33
2019-05-05T10:30:10.612Z,11.20
2019-05-05T10:32:37.336Z,11.40
2019-05-05T10:35:04.776Z,11.77
2019-05-05T10:37:31.756Z,13.06
2019-05-05T10:39:58.421Z,12.77
2019-05-05T10:42:44.863Z,13.46
2019-05-05T10:45:13.488Z,14.38
2019-05-05T10:47:40.128Z,15.85
2019-05-05T10:50:06.885Z,16.70
2019-05-05T10:52:33.806Z,18.22
2019-05-05T10:55:00.439Z,18.97
2019-05-05T10:57:27.278Z,21.96
2019-05-05T10:59:54.065Z,16.60
2019-05-05T11:02:20.843Z,16.95
2019-05-05T11:04:47.606Z,14.73
2019-05-05T11:07:14.787Z,13.96
2019-05-05T11:09:41.660Z,14.87
2019-05-05T11:12:08.349Z,16.62
2019-05-05T11:14:35.124Z,16.58
2019-05-05T11:17:04.113Z,18.31
2019-05-05T11:19:30.872Z,20.93
2019-05-05T11:21:57.458Z,23.36
2019-05-05T11:24:24.153Z,24.76
2019-05-05T11:26:50.853Z,24.47
2019-05-05T11:29:17.419Z,21.23
2019-05-05T11:31:44.124Z,18.97
2019-05-05T11:34:18.784Z,18.57
2019-05-05T11:37:01.030Z,16.59
2019-05-05T11:39:27.817Z,15.81
2019-05-05T11:41:54.927Z,14.92
2019-05-05T11:44:21.772Z,17.47
2019-05-05T11:46:48.940Z,22.47
2019-05-05T11:49:15.603Z,24.94
2019-05-05T11:51:43.656Z,27.00
2019-05-05T11:54:10.739Z,26.71
2019-05-05T11:56:37.391Z,24.26
2019-05-05T11:59:04.196Z,21.82
2019-05-05T12:01:30.865Z,19.63
2019-05-05T12:03:57.550Z,19.79
2019-05-05T12:06:24.752Z,19.38
2019-05-05T12:08:51.386Z,18.06
2019-05-05T12:11:18.063Z,18.23
2019-05-05T12:13:44.902Z,18.91
2019-05-05T12:16:13.741Z,19.29
2019-05-05T12:18:40.596Z,19.41
2019-05-05T12:21:07.361Z,19.74
2019-05-05T12:23:34.313Z,19.45
2019-05-05T12:26:26.411Z,18.75
2019-05-05T12:29:01.097Z,19.28
2019-05-05T12:31:28.427Z,19.01
2019-05-05T12:33:55.191Z,17.98
2019-05-05T12:36:23.670Z,18.67
2019-05-05T12:38:50.788Z,19.21
2019-05-05T12:41:20.773Z,21.37
2019-05-05T12:43:46.298Z,24.38
2019-05-05T12:46:33.715Z,28.07
2019-05-05T12:49:01.941Z,29.81
2019-05-05T12:51:28.608Z,33.02
2019-05-05T12:53:55.434Z,27.41
2019-05-05T12:56:23.799Z,25.32
2019-05-05T12:58:50.798Z,22.49
2019-05-05T13:01:24.662Z,21.69
2019-05-05T13:03:51.442Z,19.10
2019-05-05T13:06:18.202Z,22.98
2019-05-05T13:08:45.011Z,25.17
2019-05-05T13:11:11.770Z,23.15
2019-05-05T13:13:38.454Z,20.81
2019-05-05T13:16:05.202Z,21.62
2019-05-05T13:18:33.943Z,20.07
2019-05-05T13:21:23.954Z,19.07
2019-05-05T13:24:04.375Z,21.22
2019-05-05T13:26:49.322Z,22.06
2019-05-05T13:29:16.471Z,18.42
2019-05-05T13:31:44.181Z,19.16
2019-05-05T13:34:11.032Z,18.96
2019-05-05T13:36:37.724Z,19.06
2019-05-05T13:39:06.282Z,19.01
2019-05-05T13:41:34.024Z,18.94
2019-05-05T13:44:04.478Z,19.46
2019-05-05T13:46:33.798Z,18.91
2019-05-05T13:49:20.270Z,18.64
2019-05-05T13:51:47.074Z,21.18
2019-05-05T13:54:13.757Z,24.56
2019-05-05T13:56:40.334Z,26.77
2019-05-05T13:59:06.991Z,23.93
2019-05-05T14:01:34.233Z,21.79
2019-05-05T14:04:00.988Z,20.68
2019-05-05T14:06:27.653Z,20.76
2019-05-05T14:08:54.340Z,22.69
2019-05-05T14:11:21.128Z,25.15
2019-05-05T14:13:48.479Z,28.51
2019-05-05T14:16:15.398Z,29.85
2019-05-05T14:18:45.131Z,28.63
2019-05-05T14:21:13.926Z,26.83
2019-05-05T14:23:58.133Z,23.51
2019-05-05T14:26:28.273Z,23.13
2019-05-05T14:28:53.674Z,23.05
2019-05-05T14:31:24.815Z,22.55
2019-05-05T14:33:54.793Z,21.48
2019-05-05T14:36:45.947Z,20.04
2019-05-05T14:39:14.777Z,20.21
2019-05-05T14:41:41.602Z,19.78
2019-05-05T14:44:09.342Z,21.63
2019-05-05T14:46:36.019Z,22.76
2019-05-05T14:49:05.367Z,21.92
2019-05-05T14:51:31.487Z,20.25
2019-05-05T14:53:58.182Z,18.55
2019-05-05T14:56:35.770Z,18.30
2019-05-05T14:58:54.311Z,17.80
2019-05-05T15:01:21.262Z,17.34
2019-05-05T15:03:48.019Z,16.95
2019-05-05T15:06:34.507Z,16.54
2019-05-05T15:09:24.662Z,15.89
2019-05-05T15:12:03.889Z,15.95
2019-05-05T15:14:30.616Z,15.76
2019-05-05T15:16:57.372Z,15.49
2019-05-05T15:19:24.238Z,14.92
2019-05-05T15:21:50.848Z,13.68
2019-05-05T15:24:17.642Z,13.33
2019-05-05T15:26:51.934Z,12.90
2019-05-05T15:29:12.895Z,12.84
2019-05-05T15:31:39.674Z,13.06
2019-05-05T15:34:06.337Z,13.62
2019-05-05T15:36:33.457Z,13.84
2019-05-05T15:39:00.224Z,14.56
2019-05-05T15:41:27.030Z,15.16
2019-05-05T15:43:54.355Z,15.96
2019-05-05T15:46:21.186Z,16.25
2019-05-05T15:48:47.857Z,16.20
2019-05-05T15:51:14.594Z,17.45
2019-05-05T15:53:41.342Z,20.02
2019-05-05T15:56:08.024Z,19.19
2019-05-05T15:58:34.686Z,19.70
2019-05-05T16:01:01.391Z,19.20
2019-05-05T16:03:29.838Z,20.24
2019-05-05T16:05:56.622Z,22.34
2019-05-05T16:08:23.388Z,24.71
2019-05-05T16:10:50.170Z,25.33
2019-05-05T16:13:16.840Z,24.83
2019-05-05T16:15:58.492Z,22.56
2019-05-05T16:18:35.532Z,21.14
2019-05-05T16:21:08.962Z,20.16
2019-05-05T16:23:40.595Z,18.85
2019-05-05T16:26:07.384Z,18.16
2019-05-05T16:28:34.351Z,18.14
2019-05-05T16:31:01.038Z,18.01
2019-05-05T16:33:27.702Z,17.79
2019-05-05T16:35:54.383Z,16.71
2019-05-05T16:38:20.963Z,16.57
2019-05-05T16:40:47.781Z,16.07
2019-05-05T16:43:16.608Z,15.34
2019-05-05T16:45:44.485Z,15.56
2019-05-05T16:48:11.496Z,15.84
2019-05-05T16:50:38.104Z,16.02
2019-05-05T16:53:05.071Z,15.03
2019-05-05T16:55:39.190Z,15.34
2019-05-05T16:58:06.693Z,14.94
2019-05-05T17:00:34.611Z,15.25
2019-05-05T17:03:01.211Z,15.78
2019-05-05T17:05:27.975Z,16.14
2019-05-05T17:07:55.635Z,15.64
2019-05-05T17:10:24.427Z,15.76
2019-05-05T17:12:51.460Z,16.01
2019-05-05T17:15:35.465Z,16.01
2019-05-05T17:18:32.491Z,15.77
2019-05-05T17:21:04.185Z,15.49
2019-05-05T17:23:31.222Z,15.27
2019-05-05T17:25:58.060Z,15.22
2019-05-05T17:28:24.734Z,15.40
2019-05-05T17:30:51.515Z,15.44
2019-05-05T17:33:18.186Z,15.39
2019-05-05T17:35:44.969Z,15.33
2019-05-05T17:38:14.307Z,14.93
2019-05-05T17:41:03.767Z,14.67
2019-05-05T17:43:59.065Z,14.26
2019-05-05T17:46:33.668Z,13.79
2019-05-05T17:49:16.860Z,13.41
2019-05-05T17:51:47.709Z,13.18
2019-05-05T17:54:26.727Z,12.93
2019-05-05T17:56:55.031Z,12.70
2019-05-05T17:59:23.562Z,12.40
2019-05-05T18:01:50.458Z,12.27
2019-05-05T18:04:17.111Z,12.13
2019-05-05T18:07:04.118Z,11.82
2019-05-05T18:09:50.485Z,11.71
2019-05-05T18:12:39.566Z,11.56
2019-05-05T18:15:08.461Z,11.47
2019-05-05T18:17:37.421Z,11.41
2019-05-05T18:20:21.561Z,11.28
2019-05-05T18:22:48.958Z,11.22
2019-05-05T18:25:15.770Z,11.10
2019-05-05T18:27:42.420Z,11.03
2019-05-05T18:30:09.481Z,11.01
2019-05-05T18:32:36.186Z,10.82
2019-05-05T18:35:06.416Z,10.68
2019-05-05T18:37:31.609Z,10.53
2019-05-05T18:39:58.289Z,10.48
2019-05-05T18:42:25.002Z,10.28
2019-05-05T18:44:55.879Z,10.05
2019-05-05T18:47:24.863Z,9.87
2019-05-05T18:49:51.366Z,9.73
2019-05-05T18:52:18.152Z,9.63
2019-05-05T18:54:46.231Z,9.45
2019-05-05T18:57:13.359Z,9.29
2019-05-05T18:59:40.119Z,9.11
2019-05-05T19:02:34.540Z,8.90
2019-05-05T19:05:23.560Z,8.72
2019-05-05T19:07:55.981Z,8.71
2019-05-05T19:10:24.234Z,8.70
2019-05-05T19:12:51.174Z,8.61
2019-05-05T19:15:17.978Z,8.47
2019-05-05T19:17:44.764Z,8.36
2019-05-05T19:20:31.076Z,8.26
2019-05-05T19:23:03.593Z,8.15
2019-05-05T19:25:30.318Z,8.09
2019-05-05T19:27:56.983Z,7.96
2019-05-05T19:30:25.700Z,7.94
2019-05-05T19:32:54.176Z,7.89
2019-05-05T19:35:21.041Z,7.83
2019-05-05T19:37:47.890Z,8.03
2019-05-05T19:40:14.674Z,7.94
2019-05-05T19:42:41.410Z,7.88
2019-05-05T19:45:08.314Z,7.75
2019-05-05T19:47:35.118Z,7.68
2019-05-05T19:50:34.448Z,7.68
2019-05-05T19:53:04.371Z,7.63
2019-05-05T19:55:33.793Z,7.49
2019-05-05T19:58:03.460Z,7.42
2019-05-05T20:00:31.283Z,7.31
2019-05-05T20:03:04.415Z,7.12
2019-05-05T20:05:26.662Z,7.09
2019-05-05T20:07:55.206Z,6.92
2019-05-05T20:10:22.039Z,6.69
2019-05-05T20:12:48.731Z,6.47
2019-05-05T20:15:22.610Z,6.34
2019-05-05T20:17:49.398Z,6.21
2019-05-05T20:20:16.185Z,6.15
2019-05-05T20:22:44.449Z,6.03
2019-05-05T20:25:13.827Z,5.92
2019-05-05T20:27:40.462Z,5.92
2019-05-05T20:30:07.768Z,5.97
2019-05-05T20:32:50.211Z,5.98
2019-05-05T20:35:42.277Z,6.02
2019-05-05T20:38:14.170Z,5.84
2019-05-05T20:40:44.331Z,5.70
2019-05-05T20:43:14.441Z,5.70
2019-05-05T20:45:41.126Z,5.57
2019-05-05T20:48:07.928Z,5.48
2019-05-05T20:50:34.705Z,5.48
2019-05-05T20:53:02.164Z,5.37
2019-05-05T20:55:28.737Z,5.37
2019-05-05T20:57:55.591Z,5.35
2019-05-05T21:00:23.884Z,5.24
2019-05-05T21:02:50.560Z,5.12
2019-05-05T21:05:18.657Z,5.05
2019-05-05T21:07:45.500Z,5.01
2019-05-05T21:10:14.440Z,5.21
2019-05-05T21:12:42.667Z,5.29
2019-05-05T21:15:12.934Z,5.39
2019-05-05T21:17:38.786Z,5.51
2019-05-05T21:20:05.596Z,5.58
2019-05-05T21:22:44.250Z,5.65
2019-05-05T21:25:25.754Z,5.74
2019-05-05T21:27:52.852Z,5.83
2019-05-05T21:30:19.653Z,5.93
2019-05-05T21:32:46.350Z,5.93
2019-05-05T21:35:14.275Z,6.10
2019-05-05T21:37:40.883Z,6.10
2019-05-05T21:40:07.688Z,6.11
2019-05-05T21:42:35.001Z,6.09
2019-05-05T21:45:04.497Z,6.07
2019-05-05T21:47:30.485Z,6.17
2019-05-05T21:49:57.077Z,6.31
2019-05-05T21:52:42.038Z,6.33
2019-05-05T21:55:27.196Z,6.39
2019-05-05T21:58:13.618Z,6.49
2019-05-05T22:00:58.648Z,6.59
2019-05-05T22:03:34.652Z,6.68
2019-05-05T22:06:03.548Z,6.71
2019-05-05T22:08:30.074Z,6.71
2019-05-05T22:10:56.837Z,6.74
2019-05-05T22:13:23.612Z,6.83
2019-05-05T22:15:50.203Z,6.88
2019-05-05T22:18:16.975Z,6.84
2019-05-05T22:20:49.160Z,6.86
2019-05-05T22:23:15.938Z,6.82
2019-05-05T22:25:43.797Z,6.69
2019-05-05T22:28:10.534Z,6.55
2019-05-05T22:30:37.316Z,6.49
2019-05-05T22:33:05.971Z,6.38
2019-05-05T22:35:34.361Z,6.33
2019-05-05T22:38:01.348Z,6.31
2019-05-05T22:40:28.137Z,6.47
2019-05-05T22:42:54.937Z,6.58
2019-05-05T22:45:23.631Z,6.56
2019-05-05T22:47:50.356Z,6.69
2019-05-05T22:50:17.339Z,6.80
2019-05-05T22:52:44.689Z,6.86
2019-05-05T22:55:13.882Z,6.93
2019-05-05T22:57:40.589Z,6.80
2019-05-05T23:00:25.305Z,6.79
2019-05-05T23:02:44.564Z,6.73
2019-05-05T23:05:19.350Z,6.92
2019-05-05T23:07:46.113Z,6.94
2019-05-05T23:10:14.093Z,6.86
2019-05-05T23:12:40.969Z,6.70
2019-05-05T23:15:07.814Z,6.60
2019-05-05T23:17:43.822Z,6.46
2019-05-05T23:20:24.643Z,6.64
2019-05-05T23:23:14.568Z,6.41
2019-05-05T23:25:45.786Z,6.26
2019-05-05T23:28:14.621Z,6.06
2019-05-05T23:30:42.498Z,5.91
2019-05-05T23:33:15.777Z,5.92
2019-05-05T23:35:43.708Z,5.83
2019-05-05T23:38:10.542Z,5.48
2019-05-05T23:40:39.485Z,5.53
2019-05-05T23:43:06.154Z,5.34
2019-05-05T23:45:34.092Z,5.34
2019-05-05T23:48:00.859Z,5.23
2019-05-05T23:50:27.658Z,5.05
2019-05-05T23:52:54.840Z,5.10
2019-05-05T23:55:23.836Z,5.04
2019-05-05T23:57:50.462Z,5.05
